createdAt,value
2018-08-19T00:00:10.738Z,0.00
2018-08-19T00:01:10.717Z,0.00
2018-08-19T00:02:10.680Z,0.00
2018-08-19T00:03:10.630Z,0.00
2018-08-19T00:04:10.615Z,0.00
2018-08-19T00:05:10.573Z,0.00
2018-08-19T00:06:10.549Z,0.00
2018-08-19T00:07:10.511Z,0.00
2018-08-19T00:08:10.470Z,0.00
2018-08-19T00:09:10.432Z,0.00
2018-08-19T00:10:10.396Z,0.00
2018-08-19T00:11:10.360Z,0.00
2018-08-19T00:12:10.362Z,0.00
2018-08-19T00:13:10.318Z,0.00
2018-08-19T00:14:10.277Z,0.00
2018-08-19T00:15:10.239Z,0.00
2018-08-19T00:16:10.203Z,0.00
2018-08-19T00:17:10.155Z,0.00
2018-08-19T00:18:10.122Z,0.00
2018-08-19T00:19:10.093Z,0.00
2018-08-19T00:20:10.055Z,0.00
2018-08-19T00:21:10.006Z,0.00
2018-08-19T00:22:09.979Z,0.00
2018-08-19T00:23:09.959Z,0.00
2018-08-19T00:24:09.923Z,0.00
2018-08-19T00:25:09.886Z,0.00
2018-08-19T00:26:09.896Z,0.00
2018-08-19T00:27:09.817Z,0.00
2018-08-19T00:28:09.784Z,0.00
2018-08-19T00:29:09.750Z,0.00
2018-08-19T00:30:09.729Z,0.00
2018-08-19T00:31:09.670Z,0.00
2018-08-19T00:32:09.636Z,0.00
2018-08-19T00:33:09.609Z,0.00
2018-08-19T00:34:09.566Z,0.00
2018-08-19T00:35:09.529Z,0.00
2018-08-19T00:36:09.504Z,0.00
2018-08-19T00:37:09.464Z,0.00
2018-08-19T00:38:09.439Z,0.00
2018-08-19T00:39:09.401Z,0.00
2018-08-19T00:40:09.391Z,0.00
2018-08-19T00:41:09.328Z,0.00
2018-08-19T00:42:09.313Z,0.00
2018-08-19T00:43:09.251Z,0.00
2018-08-19T00:44:09.216Z,0.00
2018-08-19T00:45:09.185Z,0.00
2018-08-19T00:46:09.148Z,0.00
2018-08-19T00:47:09.114Z,0.00
2018-08-19T00:48:09.081Z,0.00
2018-08-19T00:49:09.054Z,0.00
2018-08-19T00:50:09.025Z,0.00
2018-08-19T00:51:08.975Z,0.00
2018-08-19T00:52:08.962Z,0.00
2018-08-19T00:53:08.911Z,0.00
2018-08-19T00:54:08.884Z,0.00
2018-08-19T00:55:08.846Z,0.00
2018-08-19T00:56:08.804Z,0.00
2018-08-19T00:57:08.775Z,0.00
2018-08-19T00:58:08.733Z,0.00
2018-08-19T00:59:08.702Z,0.00
2018-08-19T01:00:08.677Z,0.00
2018-08-19T01:01:08.623Z,0.00
2018-08-19T01:02:08.603Z,0.00
2018-08-19T01:03:08.555Z,0.00
2018-08-19T01:04:08.532Z,0.00
2018-08-19T01:05:08.496Z,0.00
2018-08-19T01:06:08.458Z,0.00
2018-08-19T01:07:08.413Z,0.00
2018-08-19T01:08:08.385Z,0.00
2018-08-19T01:09:08.371Z,0.00
2018-08-19T01:10:08.319Z,0.00
2018-08-19T01:11:08.278Z,0.00
2018-08-19T01:12:08.239Z,0.00
2018-08-19T01:13:08.218Z,0.00
2018-08-19T01:14:08.174Z,0.00
2018-08-19T01:15:08.129Z,0.00
2018-08-19T01:16:08.109Z,0.00
2018-08-19T01:17:08.069Z,0.00
2018-08-19T01:18:08.029Z,0.00
2018-08-19T01:19:08.005Z,0.00
2018-08-19T01:20:07.953Z,0.00
2018-08-19T01:21:07.919Z,0.00
2018-08-19T01:22:07.887Z,0.00
2018-08-19T01:23:07.862Z,0.00
2018-08-19T01:24:07.817Z,0.00
2018-08-19T01:25:07.790Z,0.00
2018-08-19T01:26:07.745Z,0.00
2018-08-19T01:27:07.723Z,0.00
2018-08-19T01:28:07.680Z,0.00
2018-08-19T01:29:07.634Z,0.00
2018-08-19T01:30:07.610Z,0.00
2018-08-19T01:31:07.578Z,0.00
2018-08-19T01:32:07.552Z,0.00
2018-08-19T01:33:07.504Z,0.00
2018-08-19T01:34:07.475Z,0.00
2018-08-19T01:35:07.432Z,0.00
2018-08-19T01:36:07.401Z,0.00
2018-08-19T01:37:07.364Z,0.00
2018-08-19T01:38:07.332Z,0.00
2018-08-19T01:39:07.293Z,0.00
2018-08-19T01:40:07.263Z,0.00
2018-08-19T01:41:07.232Z,0.00
2018-08-19T01:42:07.197Z,0.00
2018-08-19T01:43:07.151Z,0.00
2018-08-19T01:44:07.123Z,0.00
2018-08-19T01:45:07.085Z,0.00
2018-08-19T01:46:07.057Z,0.00
2018-08-19T01:47:07.016Z,0.00
2018-08-19T01:48:06.971Z,0.00
2018-08-19T01:49:06.949Z,0.00
2018-08-19T01:50:06.915Z,0.00
2018-08-19T01:51:06.866Z,0.00
2018-08-19T01:52:06.846Z,0.00
2018-08-19T01:53:06.802Z,0.00
2018-08-19T01:54:06.782Z,0.00
2018-08-19T01:55:06.728Z,0.00
2018-08-19T01:56:06.719Z,0.00
2018-08-19T01:57:06.660Z,0.00
2018-08-19T01:58:06.620Z,0.00
2018-08-19T01:59:08.566Z,0.00
2018-08-19T02:00:08.258Z,0.00
2018-08-19T02:01:07.724Z,0.00
2018-08-19T02:02:07.159Z,0.00
2018-08-19T02:03:09.606Z,0.00
2018-08-19T02:04:07.153Z,0.00
2018-08-19T02:05:06.848Z,0.00
2018-08-19T02:06:06.971Z,0.00
2018-08-19T02:07:09.255Z,0.00
2018-08-19T02:08:08.728Z,0.00
2018-08-19T02:09:06.672Z,0.00
2018-08-19T02:10:06.674Z,0.00
2018-08-19T02:11:09.721Z,0.00
2018-08-19T02:12:06.791Z,0.00
2018-08-19T02:13:08.218Z,0.00
2018-08-19T02:14:09.151Z,0.00
2018-08-19T02:15:07.356Z,0.00
2018-08-19T02:16:09.808Z,0.00
2018-08-19T02:17:09.259Z,0.00
2018-08-19T02:18:07.407Z,0.00
2018-08-19T02:19:06.577Z,0.00
2018-08-19T02:20:06.168Z,0.00
2018-08-19T02:21:06.006Z,0.00
2018-08-19T02:22:05.779Z,0.00
2018-08-19T02:23:05.768Z,0.00
2018-08-19T02:24:05.703Z,0.00
2018-08-19T02:25:05.668Z,0.00
2018-08-19T02:26:05.639Z,0.00
2018-08-19T02:27:05.594Z,0.00
2018-08-19T02:28:05.572Z,0.00
2018-08-19T02:29:05.531Z,0.00
2018-08-19T02:30:05.483Z,0.00
2018-08-19T02:31:05.479Z,0.00
2018-08-19T02:32:05.421Z,0.00
2018-08-19T02:33:05.384Z,0.00
2018-08-19T02:34:05.349Z,0.00
2018-08-19T02:35:05.319Z,0.00
2018-08-19T02:36:05.282Z,0.00
2018-08-19T02:37:05.241Z,0.00
2018-08-19T02:38:05.210Z,0.00
2018-08-19T02:39:05.166Z,0.00
2018-08-19T02:40:05.144Z,0.00
2018-08-19T02:41:05.106Z,0.00
2018-08-19T02:42:05.063Z,0.00
2018-08-19T02:43:05.030Z,0.00
2018-08-19T02:44:04.998Z,0.00
2018-08-19T02:45:04.960Z,0.00
2018-08-19T02:46:04.916Z,0.00
2018-08-19T02:47:04.888Z,0.00
2018-08-19T02:48:04.849Z,0.00
2018-08-19T02:49:04.822Z,0.00
2018-08-19T02:50:04.782Z,0.00
2018-08-19T02:51:04.740Z,0.00
2018-08-19T02:52:04.717Z,0.00
2018-08-19T02:53:04.670Z,0.00
2018-08-19T02:54:04.636Z,0.00
2018-08-19T02:55:04.615Z,0.00
2018-08-19T02:56:04.576Z,0.00
2018-08-19T02:57:04.534Z,0.00
2018-08-19T02:58:04.499Z,0.00
2018-08-19T02:59:04.483Z,0.00
2018-08-19T03:00:04.427Z,0.00
2018-08-19T03:01:04.387Z,0.00
2018-08-19T03:02:04.354Z,0.00
2018-08-19T03:03:04.327Z,0.00
2018-08-19T03:04:04.284Z,0.00
2018-08-19T03:05:04.264Z,0.00
2018-08-19T03:06:04.214Z,0.00
2018-08-19T03:07:04.173Z,0.00
2018-08-19T03:08:04.142Z,0.00
2018-08-19T03:09:04.103Z,0.00
2018-08-19T03:10:04.074Z,0.00
2018-08-19T03:11:04.028Z,0.00
2018-08-19T03:12:03.994Z,0.00
2018-08-19T03:13:03.960Z,0.00
2018-08-19T03:14:03.940Z,0.00
2018-08-19T03:15:03.929Z,0.00
2018-08-19T03:16:03.872Z,0.00
2018-08-19T03:17:03.828Z,0.00
2018-08-19T03:18:03.794Z,0.00
2018-08-19T03:19:03.770Z,0.00
2018-08-19T03:20:03.741Z,0.00
2018-08-19T03:21:03.690Z,0.00
2018-08-19T03:22:03.639Z,0.00
2018-08-19T03:23:03.617Z,0.00
2018-08-19T03:24:03.572Z,0.00
2018-08-19T03:25:03.574Z,0.00
2018-08-19T03:26:03.514Z,0.00
2018-08-19T03:27:03.476Z,0.00
2018-08-19T03:28:03.439Z,4.00
2018-08-19T03:29:03.405Z,4.00
2018-08-19T03:30:03.376Z,4.00
2018-08-19T03:31:03.329Z,4.00
2018-08-19T03:32:03.296Z,4.00
2018-08-19T03:33:03.271Z,8.00
2018-08-19T03:34:03.263Z,4.00
2018-08-19T03:35:03.209Z,8.00
2018-08-19T03:36:03.149Z,8.00
2018-08-19T03:37:03.105Z,12.00
2018-08-19T03:38:03.159Z,12.00
2018-08-19T03:39:03.058Z,12.00
2018-08-19T03:40:03.002Z,12.00
2018-08-19T03:41:02.979Z,16.00
2018-08-19T03:42:02.928Z,20.00
2018-08-19T03:43:02.889Z,24.00
2018-08-19T03:44:02.857Z,28.00
2018-08-19T03:45:02.832Z,32.00
2018-08-19T03:46:02.796Z,36.00
2018-08-19T03:47:02.767Z,40.00
2018-08-19T03:48:02.713Z,48.00
2018-08-19T03:49:02.687Z,52.00
2018-08-19T03:50:02.689Z,60.00
2018-08-19T03:51:02.633Z,72.00
2018-08-19T03:52:02.588Z,84.00
2018-08-19T03:53:02.603Z,96.00
2018-08-19T03:54:02.553Z,108.00
2018-08-19T03:55:02.492Z,128.00
2018-08-19T03:56:02.498Z,144.00
2018-08-19T03:57:02.419Z,164.00
2018-08-19T03:58:02.399Z,184.00
2018-08-19T03:59:02.315Z,212.00
2018-08-19T04:00:02.317Z,240.00
2018-08-19T04:01:02.262Z,268.00
2018-08-19T04:02:02.234Z,296.00
2018-08-19T04:03:02.187Z,328.00
2018-08-19T04:04:02.149Z,368.00
2018-08-19T04:05:02.118Z,412.00
2018-08-19T04:06:02.087Z,456.00
2018-08-19T04:07:02.076Z,504.00
2018-08-19T04:08:02.007Z,552.00
2018-08-19T04:09:01.971Z,612.00
2018-08-19T04:10:01.929Z,672.00
2018-08-19T04:11:01.902Z,724.00
2018-08-19T04:12:01.877Z,784.00
2018-08-19T04:13:01.849Z,840.00
2018-08-19T04:14:01.810Z,924.00
2018-08-19T04:15:01.771Z,988.00
2018-08-19T04:16:01.738Z,1076.00
2018-08-19T04:17:01.722Z,1152.00
2018-08-19T04:18:01.661Z,1228.00
2018-08-19T04:19:01.620Z,1312.00
2018-08-19T04:20:01.581Z,1396.00
2018-08-19T04:21:01.549Z,1496.00
2018-08-19T04:22:01.500Z,1584.00
2018-08-19T04:23:01.474Z,1656.00
2018-08-19T04:24:01.444Z,1720.00
2018-08-19T04:25:01.395Z,1820.00
2018-08-19T04:26:01.367Z,1952.00
2018-08-19T04:27:01.374Z,2068.00
2018-08-19T04:28:01.311Z,2184.00
2018-08-19T04:29:01.252Z,2304.00
2018-08-19T04:30:01.248Z,2416.00
2018-08-19T04:31:01.177Z,2552.00
2018-08-19T04:32:01.146Z,2692.00
2018-08-19T04:33:01.126Z,2820.00
2018-08-19T04:34:01.083Z,2976.00
2018-08-19T04:35:01.053Z,3116.00
2018-08-19T04:36:01.032Z,3272.00
2018-08-19T04:37:00.975Z,3432.00
2018-08-19T04:38:00.941Z,3620.00
2018-08-19T04:39:00.908Z,3840.00
2018-08-19T04:40:00.865Z,4088.00
2018-08-19T04:41:00.848Z,4336.00
2018-08-19T04:42:00.809Z,4564.00
2018-08-19T04:43:00.784Z,4780.00
2018-08-19T04:44:00.753Z,4996.00
2018-08-19T04:45:00.688Z,5196.00
2018-08-19T04:46:00.674Z,5392.00
2018-08-19T04:47:00.621Z,5564.00
2018-08-19T04:48:00.590Z,5720.00
2018-08-19T04:49:00.556Z,5892.00
2018-08-19T04:50:00.520Z,6092.00
2018-08-19T04:51:00.482Z,6240.00
2018-08-19T04:52:00.435Z,6392.00
2018-08-19T04:53:00.420Z,6552.00
2018-08-19T04:54:00.392Z,6720.00
2018-08-19T04:55:00.368Z,6892.00
2018-08-19T04:56:00.316Z,7024.00
2018-08-19T04:57:00.354Z,7156.00
2018-08-19T04:58:00.232Z,7280.00
2018-08-19T04:59:00.193Z,7408.00
2018-08-19T05:00:00.168Z,7544.00
2018-08-19T05:01:00.133Z,7696.00
2018-08-19T05:02:00.094Z,7832.00
2018-08-19T05:03:00.071Z,7940.00
2018-08-19T05:04:00.023Z,8032.00
2018-08-19T05:04:59.996Z,8116.00
2018-08-19T05:05:59.967Z,8164.00
2018-08-19T05:06:59.928Z,8192.00
2018-08-19T05:07:59.884Z,8212.00
2018-08-19T05:08:59.837Z,8260.00
2018-08-19T05:09:59.820Z,8284.00
2018-08-19T05:10:59.782Z,8308.00
2018-08-19T05:11:59.766Z,8312.00
2018-08-19T05:12:59.698Z,8396.00
2018-08-19T05:13:59.672Z,8524.00
2018-08-19T05:14:59.640Z,8848.00
2018-08-19T05:15:59.598Z,9220.00
2018-08-19T05:16:59.571Z,9548.00
2018-08-19T05:17:59.531Z,9764.00
2018-08-19T05:18:59.485Z,9896.00
2018-08-19T05:19:59.489Z,10044.00
2018-08-19T05:20:59.438Z,10200.00
2018-08-19T05:21:59.410Z,10368.00
2018-08-19T05:22:59.619Z,10472.00
2018-08-19T05:23:59.313Z,10532.00
2018-08-19T05:24:59.290Z,10688.00
2018-08-19T05:25:59.259Z,10832.00
2018-08-19T05:26:59.231Z,11004.00
2018-08-19T05:27:59.198Z,11176.00
2018-08-19T05:28:59.152Z,11292.00
2018-08-19T05:29:59.205Z,11400.00
2018-08-19T05:30:59.081Z,11532.00
2018-08-19T05:31:59.051Z,11676.00
2018-08-19T05:32:59.008Z,11804.00
2018-08-19T05:33:58.976Z,11940.00
2018-08-19T05:34:58.956Z,12080.00
2018-08-19T05:35:58.927Z,12248.00
2018-08-19T05:36:58.874Z,12368.00
2018-08-19T05:37:58.897Z,12444.00
2018-08-19T05:38:58.802Z,12484.00
2018-08-19T05:39:59.291Z,12548.00
2018-08-19T05:40:58.754Z,12648.00
2018-08-19T05:41:58.712Z,12780.00
2018-08-19T05:42:58.699Z,12844.00
2018-08-19T05:43:58.641Z,12872.00
2018-08-19T05:44:58.607Z,12912.00
2018-08-19T05:45:58.570Z,13020.00
2018-08-19T05:46:58.579Z,13172.00
2018-08-19T05:47:58.514Z,13344.00
2018-08-19T05:48:58.460Z,13468.00
2018-08-19T05:49:58.431Z,13544.00
2018-08-19T05:50:58.397Z,13608.00
2018-08-19T05:51:58.349Z,13720.00
2018-08-19T05:52:58.336Z,13864.00
2018-08-19T05:53:58.339Z,14016.00
2018-08-19T05:54:58.268Z,14292.00
2018-08-19T05:55:58.228Z,14676.00
2018-08-19T05:57:00.871Z,14532.00
2018-08-19T05:57:58.170Z,14596.00
2018-08-19T05:58:58.140Z,15088.00
2018-08-19T05:59:58.083Z,15440.00
2018-08-19T06:00:58.112Z,15004.00
2018-08-19T06:01:58.027Z,14888.00
2018-08-19T06:02:57.998Z,15012.00
2018-08-19T06:03:57.967Z,15148.00
2018-08-19T06:04:57.929Z,15328.00
2018-08-19T06:05:57.896Z,15392.00
2018-08-19T06:06:57.910Z,15484.00
2018-08-19T06:07:57.862Z,15616.00
2018-08-19T06:08:57.807Z,15740.00
2018-08-19T06:09:57.778Z,15836.00
2018-08-19T06:10:57.742Z,15928.00
2018-08-19T06:11:57.711Z,16116.00
2018-08-19T06:12:57.680Z,16528.00
2018-08-19T06:13:57.625Z,17160.00
2018-08-19T06:14:57.610Z,16876.00
2018-08-19T06:15:57.672Z,16608.00
2018-08-19T06:16:57.544Z,16764.00
2018-08-19T06:17:57.500Z,16772.00
2018-08-19T06:18:57.472Z,16744.00
2018-08-19T06:19:57.425Z,16952.00
2018-08-19T06:20:57.404Z,17196.00
2018-08-19T06:21:57.388Z,17296.00
2018-08-19T06:22:57.335Z,17220.00
2018-08-19T06:23:57.311Z,17272.00
2018-08-19T06:24:57.279Z,17572.00
2018-08-19T06:25:57.248Z,17592.00
2018-08-19T06:26:57.249Z,17828.00
2018-08-19T06:27:57.173Z,17780.00
2018-08-19T06:28:57.167Z,17704.00
2018-08-19T06:29:57.112Z,17672.00
2018-08-19T06:30:57.124Z,17652.00
2018-08-19T06:31:57.061Z,17664.00
2018-08-19T06:32:57.007Z,17700.00
2018-08-19T06:33:57.009Z,17748.00
2018-08-19T06:34:56.988Z,17764.00
2018-08-19T06:35:56.933Z,17788.00
2018-08-19T06:36:56.882Z,17828.00
2018-08-19T06:37:56.853Z,17920.00
2018-08-19T06:38:56.826Z,18020.00
2018-08-19T06:39:56.780Z,18112.00
2018-08-19T06:40:56.761Z,18228.00
2018-08-19T06:41:56.736Z,18368.00
2018-08-19T06:42:56.689Z,18508.00
2018-08-19T06:43:56.676Z,18616.00
2018-08-19T06:44:56.637Z,18708.00
2018-08-19T06:45:56.600Z,18760.00
2018-08-19T06:46:56.564Z,18872.00
2018-08-19T06:47:56.541Z,19380.00
2018-08-19T06:48:56.513Z,19744.00
2018-08-19T06:49:56.465Z,19480.00
2018-08-19T06:50:56.445Z,19176.00
2018-08-19T06:51:56.401Z,19112.00
2018-08-19T06:52:56.397Z,19208.00
2018-08-19T06:53:56.355Z,19180.00
2018-08-19T06:54:56.307Z,19212.00
2018-08-19T06:55:56.292Z,19368.00
2018-08-19T06:56:56.257Z,19900.00
2018-08-19T06:57:56.236Z,21568.00
2018-08-19T06:58:56.185Z,24384.00
2018-08-19T06:59:56.164Z,33504.00
2018-08-19T07:00:56.129Z,43136.00
2018-08-19T07:01:56.095Z,44992.00
2018-08-19T07:02:56.064Z,45056.00
2018-08-19T07:03:56.084Z,46208.00
2018-08-19T07:04:56.007Z,48288.00
2018-08-19T07:05:55.991Z,48768.00
2018-08-19T07:06:56.098Z,49056.00
2018-08-19T07:07:55.917Z,46944.00
2018-08-19T07:08:55.895Z,45664.00
2018-08-19T07:09:55.869Z,44384.00
2018-08-19T07:10:55.842Z,45664.00
2018-08-19T07:11:55.812Z,47136.00
2018-08-19T07:12:55.789Z,46816.00
2018-08-19T07:13:55.744Z,45856.00
2018-08-19T07:14:55.729Z,47360.00
2018-08-19T07:15:55.691Z,54592.00
2018-08-19T07:16:55.704Z,58304.00
2018-08-19T07:17:55.644Z,55424.00
2018-08-19T07:18:55.615Z,53600.00
2018-08-19T07:19:55.593Z,55840.00
2018-08-19T07:20:55.583Z,53472.00
2018-08-19T07:21:55.565Z,56032.00
2018-08-19T07:22:55.520Z,58208.00
2018-08-19T07:23:55.580Z,56448.00
2018-08-19T07:24:55.461Z,54912.00
2018-08-19T07:25:55.448Z,55808.00
2018-08-19T07:26:55.423Z,57216.00
2018-08-19T07:27:55.404Z,59744.00
2018-08-19T07:28:55.390Z,57824.00
2018-08-19T07:29:55.360Z,56032.00
2018-08-19T07:30:55.335Z,53728.00
2018-08-19T07:31:55.329Z,54464.00
2018-08-19T07:32:55.282Z,56544.00
2018-08-19T07:33:55.258Z,58560.00
2018-08-19T07:34:55.256Z,60224.00
2018-08-19T07:35:55.220Z,63552.00
2018-08-19T07:36:55.271Z,65600.00
2018-08-19T07:37:55.177Z,63104.00
2018-08-19T07:38:55.152Z,62592.00
2018-08-19T07:39:55.139Z,62976.00
2018-08-19T07:40:55.120Z,64416.00
2018-08-19T07:41:55.098Z,64032.00
2018-08-19T07:42:55.082Z,64128.00
2018-08-19T07:43:55.120Z,66336.00
2018-08-19T07:44:55.020Z,67968.00
2018-08-19T07:45:55.032Z,65152.00
2018-08-19T07:46:54.982Z,61760.00
2018-08-19T07:47:54.968Z,60480.00
2018-08-19T07:48:54.947Z,62816.00
2018-08-19T07:49:54.929Z,67456.00
2018-08-19T07:50:54.909Z,71072.00
2018-08-19T07:51:54.917Z,70240.00
2018-08-19T07:52:54.867Z,67872.00
2018-08-19T07:53:54.844Z,66528.00
2018-08-19T07:54:54.823Z,63168.00
2018-08-19T07:55:54.826Z,64608.00
2018-08-19T07:56:54.785Z,68480.00
2018-08-19T07:57:54.781Z,69248.00
2018-08-19T07:58:54.745Z,69472.00
2018-08-19T07:59:54.726Z,73024.00
2018-08-19T08:00:54.704Z,71008.00
2018-08-19T08:01:54.701Z,70208.00
2018-08-19T08:02:54.677Z,70880.00
2018-08-19T08:03:54.675Z,69568.00
2018-08-19T08:04:54.638Z,71648.00
2018-08-19T08:05:54.626Z,69728.00
2018-08-19T08:06:54.599Z,68192.00
2018-08-19T08:07:54.578Z,68480.00
2018-08-19T08:08:54.787Z,69088.00
2018-08-19T08:09:54.569Z,70624.00
2018-08-19T08:10:54.569Z,71520.00
2018-08-19T08:11:54.687Z,70624.00
2018-08-19T08:12:54.489Z,71456.00
2018-08-19T08:13:54.536Z,74528.00
2018-08-19T08:14:54.447Z,75104.00
2018-08-19T08:15:54.453Z,75328.00
2018-08-19T08:16:54.412Z,80608.00
2018-08-19T08:17:54.376Z,82688.00
2018-08-19T08:18:54.380Z,78592.00
2018-08-19T08:19:54.349Z,80544.00
2018-08-19T08:20:54.362Z,80704.00
2018-08-19T08:21:54.310Z,77344.00
2018-08-19T08:22:54.377Z,72896.00
2018-08-19T08:23:54.295Z,71968.00
2018-08-19T08:24:54.260Z,75424.00
2018-08-19T08:25:54.334Z,77856.00
2018-08-19T08:26:54.265Z,79424.00
2018-08-19T08:27:54.242Z,83488.00
2018-08-19T08:28:54.184Z,85408.00
2018-08-19T08:29:54.190Z,86112.00
2018-08-19T08:30:54.165Z,84576.00
2018-08-19T08:31:54.130Z,82592.00
2018-08-19T08:32:54.142Z,81024.00
2018-08-19T08:33:54.101Z,85088.00
2018-08-19T08:34:54.077Z,87552.00
2018-08-19T08:35:54.088Z,91168.00
2018-08-19T08:36:54.036Z,92704.00
2018-08-19T08:37:54.148Z,87520.00
2018-08-19T08:38:54.006Z,82656.00
2018-08-19T08:39:53.978Z,84000.00
2018-08-19T08:40:53.968Z,83360.00
2018-08-19T08:41:53.962Z,83392.00
2018-08-19T08:42:53.915Z,86048.00
2018-08-19T08:43:53.902Z,83520.00
2018-08-19T08:44:53.922Z,75840.00
2018-08-19T08:45:53.951Z,76416.00
2018-08-19T08:46:53.852Z,81056.00
2018-08-19T08:47:53.914Z,79072.00
2018-08-19T08:48:53.845Z,77664.00
2018-08-19T08:49:53.849Z,77920.00
2018-08-19T08:50:53.832Z,78176.00
2018-08-19T08:51:53.754Z,80736.00
2018-08-19T08:52:53.787Z,85152.00
2018-08-19T08:53:53.724Z,89600.00
2018-08-19T08:54:53.722Z,90368.00
2018-08-19T08:55:53.703Z,92992.00
2018-08-19T08:56:53.705Z,90464.00
2018-08-19T08:57:53.658Z,88128.00
2018-08-19T08:58:53.618Z,94240.00
2018-08-19T08:59:53.641Z,100288.00
2018-08-19T09:00:53.581Z,103488.00
2018-08-19T09:01:53.690Z,100672.00
2018-08-19T09:02:53.620Z,100640.00
2018-08-19T09:03:53.620Z,101888.00
2018-08-19T09:04:53.543Z,99456.00
2018-08-19T09:05:53.512Z,103520.00
2018-08-19T09:06:53.525Z,96320.00
2018-08-19T09:07:53.580Z,90144.00
2018-08-19T09:08:53.468Z,93216.00
2018-08-19T09:09:53.419Z,99872.00
2018-08-19T09:10:53.455Z,103424.00
2018-08-19T09:11:53.415Z,100448.00
2018-08-19T09:12:53.399Z,95168.00
2018-08-19T09:13:53.384Z,97792.00
2018-08-19T09:14:53.374Z,97824.00
2018-08-19T09:15:53.349Z,97056.00
2018-08-19T09:16:53.309Z,95616.00
2018-08-19T09:17:53.331Z,89632.00
2018-08-19T09:18:53.412Z,89184.00
2018-08-19T09:19:53.304Z,92544.00
2018-08-19T09:20:53.263Z,97280.00
2018-08-19T09:21:53.239Z,100256.00
2018-08-19T09:22:53.344Z,103520.00
2018-08-19T09:23:53.224Z,103680.00
2018-08-19T09:24:53.213Z,105728.00
2018-08-19T09:25:53.159Z,110400.00
2018-08-19T09:26:53.146Z,101920.00
2018-08-19T09:27:53.123Z,103296.00
2018-08-19T09:28:53.101Z,99648.00
2018-08-19T09:29:53.092Z,101504.00
2018-08-19T09:30:53.092Z,98880.00
2018-08-19T09:31:53.061Z,95552.00
2018-08-19T09:32:53.075Z,94816.00
2018-08-19T09:33:53.017Z,97376.00
2018-08-19T09:34:53.016Z,97472.00
2018-08-19T09:35:53.014Z,97056.00
2018-08-19T09:36:53.025Z,96992.00
2018-08-19T09:37:52.962Z,99456.00
2018-08-19T09:38:52.948Z,100736.00
2018-08-19T09:39:52.954Z,103584.00
2018-08-19T09:40:53.027Z,101152.00
2018-08-19T09:41:52.892Z,104032.00
2018-08-19T09:42:52.881Z,101920.00
2018-08-19T09:43:52.876Z,95712.00
2018-08-19T09:44:52.974Z,96896.00
2018-08-19T09:45:52.865Z,104576.00
2018-08-19T09:46:52.915Z,97024.00
2018-08-19T09:47:52.978Z,97376.00
2018-08-19T09:48:52.786Z,98656.00
2018-08-19T09:49:52.853Z,95488.00
2018-08-19T09:50:52.759Z,99712.00
2018-08-19T09:51:52.730Z,98304.00
2018-08-19T09:52:52.711Z,95360.00
2018-08-19T09:53:52.700Z,95808.00
2018-08-19T09:54:52.675Z,97056.00
2018-08-19T09:55:52.656Z,103552.00
2018-08-19T09:56:52.660Z,100032.00
2018-08-19T09:57:52.676Z,106464.00
2018-08-19T09:58:52.635Z,108448.00
2018-08-19T09:59:52.601Z,108448.00
2018-08-19T10:00:52.590Z,112160.00
2018-08-19T10:01:52.567Z,108832.00
2018-08-19T10:02:52.545Z,102176.00
2018-08-19T10:03:52.508Z,98496.00
2018-08-19T10:04:52.494Z,96192.00
2018-08-19T10:05:52.476Z,99904.00
2018-08-19T10:06:52.491Z,106944.00
2018-08-19T10:07:52.523Z,104192.00
2018-08-19T10:08:52.436Z,109664.00
2018-08-19T10:09:52.423Z,105792.00
2018-08-19T10:10:52.404Z,108192.00
2018-08-19T10:11:52.382Z,114208.00
2018-08-19T10:12:52.358Z,109280.00
2018-08-19T10:13:52.392Z,105312.00
2018-08-19T10:14:52.359Z,108544.00
2018-08-19T10:15:52.325Z,105344.00
2018-08-19T10:16:52.307Z,104064.00
2018-08-19T10:17:52.280Z,107584.00
2018-08-19T10:18:52.273Z,105600.00
2018-08-19T10:19:52.267Z,102688.00
2018-08-19T10:20:52.260Z,101344.00
2018-08-19T10:21:52.274Z,98784.00
2018-08-19T10:22:52.266Z,101760.00
2018-08-19T10:23:52.191Z,103904.00
2018-08-19T10:24:52.278Z,104416.00
2018-08-19T10:25:52.178Z,99968.00
2018-08-19T10:26:52.133Z,103712.00
2018-08-19T10:27:52.175Z,104096.00
2018-08-19T10:28:52.485Z,103072.00
2018-08-19T10:29:52.078Z,111392.00
2018-08-19T10:30:52.101Z,119584.00
2018-08-19T10:31:52.050Z,113440.00
2018-08-19T10:32:52.079Z,101504.00
2018-08-19T10:33:52.005Z,101888.00
2018-08-19T10:34:51.985Z,103552.00
2018-08-19T10:35:51.978Z,108352.00
2018-08-19T10:36:51.968Z,109728.00
2018-08-19T10:37:51.923Z,112640.00
2018-08-19T10:38:51.912Z,111456.00
2018-08-19T10:39:51.941Z,110624.00
2018-08-19T10:40:51.889Z,111232.00
2018-08-19T10:41:51.864Z,119584.00
2018-08-19T10:42:51.831Z,117312.00
2018-08-19T10:43:51.821Z,116448.00
2018-08-19T10:44:51.828Z,118816.00
2018-08-19T10:45:51.992Z,120512.00
2018-08-19T10:46:51.984Z,118624.00
2018-08-19T10:47:51.764Z,131520.00
2018-08-19T10:48:51.766Z,124384.00
2018-08-19T10:49:51.728Z,97088.00
2018-08-19T10:50:51.700Z,113024.00
2018-08-19T10:51:51.681Z,131136.00
2018-08-19T10:52:51.707Z,117184.00
2018-08-19T10:53:51.683Z,114912.00
2018-08-19T10:54:51.631Z,120416.00
2018-08-19T10:55:51.616Z,125440.00
2018-08-19T10:56:51.610Z,119552.00
2018-08-19T10:57:51.622Z,118080.00
2018-08-19T10:58:51.568Z,116128.00
2018-08-19T10:59:51.643Z,110080.00
2018-08-19T11:00:51.576Z,122784.00
2018-08-19T11:01:51.573Z,123040.00
2018-08-19T11:02:51.503Z,114656.00
2018-08-19T11:03:51.480Z,112768.00
2018-08-19T11:04:51.478Z,119904.00
2018-08-19T11:05:51.452Z,117664.00
2018-08-19T11:06:51.467Z,110464.00
2018-08-19T11:07:51.447Z,102816.00
2018-08-19T11:08:51.516Z,110976.00
2018-08-19T11:09:51.431Z,108768.00
2018-08-19T11:10:51.370Z,101792.00
2018-08-19T11:11:51.380Z,104608.00
2018-08-19T11:12:51.319Z,116416.00
2018-08-19T11:13:51.325Z,109120.00
2018-08-19T11:14:52.010Z,99744.00
2018-08-19T11:15:51.260Z,102656.00
2018-08-19T11:16:51.251Z,105376.00
2018-08-19T11:17:51.253Z,96960.00
2018-08-19T11:18:51.217Z,94176.00
2018-08-19T11:19:51.267Z,102432.00
2018-08-19T11:20:51.224Z,106720.00
2018-08-19T11:21:51.183Z,102272.00
2018-08-19T11:22:51.151Z,102080.00
2018-08-19T11:23:51.115Z,91584.00
2018-08-19T11:24:51.148Z,89376.00
2018-08-19T11:25:51.076Z,107616.00
2018-08-19T11:26:51.172Z,113248.00
2018-08-19T11:27:51.085Z,98560.00
2018-08-19T11:28:51.073Z,96832.00
2018-08-19T11:29:51.050Z,110080.00
2018-08-19T11:30:50.998Z,116416.00
2018-08-19T11:31:51.020Z,119552.00
2018-08-19T11:32:51.004Z,121984.00
2018-08-19T11:33:51.024Z,119200.00
2018-08-19T11:34:50.955Z,120096.00
2018-08-19T11:35:50.989Z,111040.00
2018-08-19T11:36:50.905Z,110528.00
2018-08-19T11:37:50.979Z,104992.00
2018-08-19T11:38:51.015Z,100224.00
2018-08-19T11:39:50.885Z,113152.00
2018-08-19T11:40:50.853Z,124192.00
2018-08-19T11:41:50.806Z,112576.00
2018-08-19T11:42:50.791Z,103424.00
2018-08-19T11:43:50.802Z,107616.00
2018-08-19T11:44:50.860Z,109856.00
2018-08-19T11:45:50.775Z,108480.00
2018-08-19T11:46:50.711Z,113536.00
2018-08-19T11:47:50.694Z,118112.00
2018-08-19T11:48:50.726Z,115648.00
2018-08-19T11:49:50.665Z,111840.00
2018-08-19T11:50:50.629Z,121184.00
2018-08-19T11:51:50.659Z,130720.00
2018-08-19T11:52:50.592Z,109856.00
2018-08-19T11:53:50.598Z,63904.00
2018-08-19T11:54:50.589Z,50048.00
2018-08-19T11:55:50.602Z,47456.00
2018-08-19T11:56:50.584Z,45568.00
2018-08-19T11:57:50.530Z,47712.00
2018-08-19T11:58:50.606Z,48800.00
2018-08-19T11:59:50.588Z,48320.00
2018-08-19T12:00:50.478Z,51680.00
2018-08-19T12:01:50.424Z,50592.00
2018-08-19T12:02:50.467Z,50624.00
2018-08-19T12:03:50.487Z,50464.00
2018-08-19T12:04:50.438Z,52736.00
2018-08-19T12:05:50.401Z,50336.00
2018-08-19T12:06:50.357Z,47616.00
2018-08-19T12:07:50.328Z,49536.00
2018-08-19T12:08:50.405Z,48928.00
2018-08-19T12:09:50.283Z,51808.00